Time;durP1;ratioP1;P1;durP2;ratioP2;P2;SDS_P1;SDS_P2;PMS_P1;PMS_P2;Temp;Humidity;BMP_temperature;BMP_pressure;BME280_temperature;BME280_humidity;BME280_pressure;Samples;Min_cycle;Max_cycle;Signal;HPM_P1;HPM_P2
2023/03/11 00:01:30;;;;;;;36.47;19.50;;;0.40;99.90;;;;;;4979609;28;20661;-46
2023/03/11 00:03:55;;;;;;;35.30;20.00;;;0.30;99.90;;;;;;4986998;28;20194;-46
2023/03/11 00:06:21;;;;;;;40.40;19.27;;;0.30;99.90;;;;;;4980511;28;20219;-46
2023/03/11 00:08:46;;;;;;;36.13;19.37;;;0.40;99.90;;;;;;4982727;28;20236;-45
2023/03/11 00:11:12;;;;;;;41.23;20.37;;;0.30;99.90;;;;;;4979986;28;20248;-46
2023/03/11 00:13:39;;;;;;;35.37;19.00;;;0.40;99.90;;;;;;4979185;28;20563;-46
2023/03/11 00:16:05;;;;;;;37.13;20.23;;;0.40;99.90;;;;;;4979714;28;20193;-46
2023/03/11 00:18:31;;;;;;;37.20;19.03;;;0.40;99.90;;;;;;4980604;28;20492;-43
2023/03/11 00:20:58;;;;;;;36.90;19.50;;;0.30;99.90;;;;;;4980294;28;20447;-45
2023/03/11 00:23:25;;;;;;;42.10;20.67;;;0.30;99.90;;;;;;4976728;28;20185;-45
2023/03/11 00:25:51;;;;;;;38.97;21.33;;;0.40;99.90;;;;;;4978669;28;20451;-46
2023/03/11 00:28:17;;;;;;;41.70;21.10;;;0.40;99.90;;;;;;4980491;28;20529;-45
2023/03/11 00:30:44;;;;;;;41.67;20.63;;;0.40;99.90;;;;;;4979777;28;20436;-45
2023/03/11 00:33:12;;;;;;;38.40;20.73;;;0.30;99.90;;;;;;4981536;28;20189;-44
2023/03/11 00:35:37;;;;;;;37.23;20.67;;;0.40;99.90;;;;;;4981547;28;20484;-45
2023/03/11 00:38:06;;;;;;;40.77;21.60;;;0.40;99.90;;;;;;4980763;28;20455;-45
2023/03/11 00:40:34;;;;;;;42.60;21.30;;;0.40;99.90;;;;;;4980750;28;20535;-45
2023/03/11 00:43:00;;;;;;;38.13;19.70;;;0.40;99.90;;;;;;4985539;28;20443;-45
2023/03/11 00:45:26;;;;;;;43.20;20.50;;;0.40;99.90;;;;;;4986362;28;20443;-43
2023/03/11 00:47:53;;;;;;;40.33;20.23;;;0.40;99.90;;;;;;4979464;28;20645;-43
2023/03/11 00:50:25;;;;;;;36.97;19.57;;;0.40;99.90;;;;;;4984238;28;20458;-45
2023/03/11 00:52:51;;;;;;;45.00;20.77;;;0.40;99.90;;;;;;4982625;28;20932;-45
2023/03/11 00:55:21;;;;;;;44.97;22.17;;;0.40;99.90;;;;;;4982644;28;20435;-45
2023/03/11 00:57:47;;;;;;;40.33;21.47;;;0.40;99.90;;;;;;4984127;28;20441;-45
2023/03/11 01:00:17;;;;;;;44.97;22.10;;;0.40;99.90;;;;;;4979706;28;20455;-45
2023/03/11 01:02:43;;;;;;;49.63;22.30;;;0.40;99.90;;;;;;4983210;28;20291;-45
2023/03/11 01:05:09;;;;;;;43.13;22.57;;;0.40;99.90;;;;;;4980737;28;20948;-45
2023/03/11 01:07:35;;;;;;;37.00;19.87;;;0.40;99.90;;;;;;4984596;28;20185;-45
2023/03/11 01:10:01;;;;;;;40.60;20.93;;;0.40;99.90;;;;;;4980062;28;20487;-45
2023/03/11 01:12:27;;;;;;;41.73;20.63;;;0.50;99.90;;;;;;4976829;28;20444;-46
2023/03/11 01:14:53;;;;;;;38.57;21.37;;;0.50;99.90;;;;;;4974634;28;21352;-45
2023/03/11 01:17:20;;;;;;;37.57;20.40;;;0.50;99.90;;;;;;4978193;28;20294;-46
2023/03/11 01:19:47;;;;;;;42.73;20.67;;;0.40;99.90;;;;;;4976475;28;20212;-46
2023/03/11 01:22:12;;;;;;;36.83;19.67;;;0.40;99.90;;;;;;4979583;28;20548;-46
2023/03/11 01:24:38;;;;;;;43.00;21.60;;;0.40;99.90;;;;;;4980125;28;20546;-46
2023/03/11 01:27:03;;;;;;;42.27;21.57;;;0.40;99.90;;;;;;4982078;28;20207;-46
2023/03/11 01:29:29;;;;;;;37.03;19.77;;;0.40;99.90;;;;;;4985356;28;20263;-46
2023/03/11 01:31:55;;;;;;;40.07;19.87;;;0.40;99.90;;;;;;4988848;28;20220;-46
2023/03/11 01:34:20;;;;;;;44.10;22.03;;;0.40;99.90;;;;;;4983220;28;20185;-46
2023/03/11 01:36:46;;;;;;;39.77;19.77;;;0.30;99.90;;;;;;4986090;28;20229;-46
2023/03/11 01:39:11;;;;;;;40.00;20.10;;;0.30;99.90;;;;;;4980385;28;20546;-44
2023/03/11 01:41:37;;;;;;;35.37;18.47;;;0.40;99.90;;;;;;4982097;28;20263;-44
2023/03/11 01:44:03;;;;;;;36.13;18.40;;;0.30;99.90;;;;;;4982837;28;20215;-44
2023/03/11 01:46:49;;;;;;;36.07;19.23;;;0.30;99.90;;;;;;4979091;28;20603;-44
2023/03/11 01:49:15;;;;;;;36.87;19.60;;;0.30;99.90;;;;;;4944934;28;20485;-44
2023/03/11 01:51:43;;;;;;;35.27;18.50;;;0.20;99.90;;;;;;4979173;28;20516;-44
2023/03/11 01:54:31;;;;;;;35.13;18.90;;;0.20;99.90;;;;;;4978857;28;20200;-44
2023/03/11 01:56:58;;;;;;;33.57;18.77;;;0.10;99.90;;;;;;4976548;28;20494;-44
2023/03/11 01:59:29;;;;;;;36.67;19.10;;;0.10;99.90;;;;;;4987661;28;20780;-45
2023/03/11 02:02:12;;;;;;;35.33;18.60;;;0.00;99.90;;;;;;4985058;28;20456;-44
2023/03/11 02:04:39;;;;;;;31.97;18.17;;;0.00;99.90;;;;;;4986338;28;20496;-45
2023/03/11 02:07:08;;;;;;;33.00;18.37;;;-0.10;99.90;;;;;;4982688;28;20452;-45
2023/03/11 02:09:33;;;;;;;35.30;17.93;;;-0.20;99.90;;;;;;4982293;28;20530;-46
2023/03/11 02:12:00;;;;;;;34.17;19.07;;;-0.20;99.90;;;;;;4979025;28;20472;-46
2023/03/11 02:14:28;;;;;;;34.33;18.83;;;-0.30;99.90;;;;;;4983844;28;20604;-46
2023/03/11 02:16:54;;;;;;;36.07;17.53;;;-0.30;99.90;;;;;;4979148;28;20435;-46
2023/03/11 02:19:51;;;;;;;37.53;18.93;;;-0.30;99.90;;;;;;4980539;28;20448;-47
2023/03/11 02:22:17;;;;;;;35.83;19.20;;;-0.20;99.90;;;;;;4981928;28;20199;-46
2023/03/11 02:24:52;;;;;;;37.83;19.87;;;-0.20;99.90;;;;;;4977896;28;20538;-47
2023/03/11 02:27:20;;;;;;;42.63;20.93;;;-0.20;99.90;;;;;;4977352;28;20287;-47
2023/03/11 02:29:48;;;;;;;36.90;19.23;;;-0.20;99.90;;;;;;4978271;28;20856;-44
2023/03/11 02:32:14;;;;;;;37.93;18.73;;;-0.20;99.90;;;;;;4983258;28;20454;-45
2023/03/11 02:34:40;;;;;;;38.47;19.60;;;-0.20;99.90;;;;;;4987003;28;20510;-47
2023/03/11 02:37:09;;;;;;;43.90;21.60;;;-0.20;99.90;;;;;;4981073;28;20440;-47
2023/03/11 02:39:39;;;;;;;36.17;19.00;;;-0.20;99.90;;;;;;4984158;28;20437;-47
2023/03/11 02:42:30;;;;;;;38.17;20.10;;;-0.10;99.90;;;;;;4977900;28;20512;-47
2023/03/11 02:45:04;;;;;;;37.13;18.83;;;-0.10;99.90;;;;;;4978014;28;20444;-47
2023/03/11 02:47:31;;;;;;;35.73;18.33;;;-0.20;99.90;;;;;;4978976;28;20456;-47
2023/03/11 02:49:56;;;;;;;39.83;18.90;;;-0.20;99.90;;;;;;4978678;28;20819;-47
2023/03/11 02:52:26;;;;;;;38.33;19.43;;;-0.20;99.90;;;;;;4980288;28;20441;-47
2023/03/11 02:54:52;;;;;;;41.17;19.87;;;-0.20;99.90;;;;;;4981678;28;20210;-47
2023/03/11 02:57:17;;;;;;;36.57;18.60;;;-0.20;99.90;;;;;;4982183;28;20435;-45
2023/03/11 02:59:43;;;;;;;37.53;17.97;;;-0.20;99.90;;;;;;4981016;28;20625;-45
2023/03/11 03:02:08;;;;;;;42.37;18.90;;;-0.20;99.90;;;;;;4983931;28;20192;-47
2023/03/11 03:04:34;;;;;;;34.27;18.13;;;-0.30;99.90;;;;;;4978486;28;20204;-45
2023/03/11 03:06:59;;;;;;;34.67;18.10;;;-0.30;99.90;;;;;;4982920;28;20223;-46
2023/03/11 03:09:25;;;;;;;36.00;19.17;;;-0.40;99.90;;;;;;4980006;28;20221;-47
2023/03/11 03:11:51;;;;;;;37.53;18.27;;;-0.30;99.90;;;;;;4979276;28;20775;-45
2023/03/11 03:14:16;;;;;;;32.67;17.93;;;-0.30;99.90;;;;;;4983639;28;20195;-45
2023/03/11 03:16:42;;;;;;;37.30;18.93;;;-0.30;99.90;;;;;;4979969;28;20276;-45
2023/03/11 03:19:07;;;;;;;28.20;15.20;;;-0.20;99.90;;;;;;4980886;28;21136;-46
2023/03/11 03:21:33;;;;;;;30.63;17.13;;;-0.20;99.90;;;;;;4976494;28;20192;-45
2023/03/11 03:23:58;;;;;;;36.00;18.30;;;-0.20;99.90;;;;;;4978346;28;20204;-46
2023/03/11 03:26:24;;;;;;;33.23;18.27;;;-0.20;99.90;;;;;;4981876;28;20197;-45
2023/03/11 03:28:49;;;;;;;37.33;17.03;;;-0.20;99.90;;;;;;4979541;28;20681;-45
2023/03/11 03:31:15;;;;;;;34.30;16.60;;;-0.30;99.90;;;;;;4978373;28;20189;-45
2023/03/11 03:33:41;;;;;;;32.33;17.33;;;-0.20;99.90;;;;;;4980505;28;20192;-45
2023/03/11 03:36:09;;;;;;;39.20;17.97;;;-0.20;99.90;;;;;;4976956;28;20307;-46
2023/03/11 03:38:34;;;;;;;32.37;17.40;;;-0.20;99.90;;;;;;4983320;28;20633;-46
2023/03/11 03:41:00;;;;;;;31.77;16.77;;;-0.20;99.90;;;;;;4977640;28;20463;-46
2023/03/11 03:43:25;;;;;;;33.20;16.70;;;-0.30;99.90;;;;;;4980095;28;20185;-46
2023/03/11 03:45:59;;;;;;;32.67;16.23;;;-0.30;99.90;;;;;;4978406;28;20243;-45
2023/03/11 03:48:25;;;;;;;32.17;16.83;;;-0.30;99.90;;;;;;4985511;28;20311;-46
2023/03/11 03:50:51;;;;;;;34.87;17.87;;;-0.40;99.90;;;;;;4983191;28;20963;-46
2023/03/11 03:53:16;;;;;;;31.30;16.67;;;-0.30;99.90;;;;;;4983598;28;20194;-46
2023/03/11 03:55:42;;;;;;;36.73;16.83;;;-0.30;99.90;;;;;;4976661;28;20252;-46
2023/03/11 03:58:07;;;;;;;30.27;15.83;;;-0.30;99.90;;;;;;4980876;28;20575;-46
2023/03/11 04:00:33;;;;;;;30.90;15.50;;;-0.30;99.90;;;;;;4977744;28;20211;-46
2023/03/11 04:02:59;;;;;;;33.00;16.37;;;-0.30;99.90;;;;;;4979328;28;20284;-45
2023/03/11 04:05:26;;;;;;;34.40;16.70;;;-0.20;99.90;;;;;;4983552;28;20540;-46
2023/03/11 04:07:53;;;;;;;34.60;16.70;;;-0.20;99.90;;;;;;4982149;28;20256;-46
2023/03/11 04:10:19;;;;;;;27.03;15.37;;;-0.20;99.90;;;;;;4985658;28;20452;-47
2023/03/11 04:12:44;;;;;;;28.27;15.27;;;-0.30;99.90;;;;;;4983556;28;20927;-46
2023/03/11 04:15:10;;;;;;;28.73;15.40;;;-0.30;99.90;;;;;;4982841;28;20475;-46
2023/03/11 04:17:36;;;;;;;29.17;15.20;;;-0.30;99.90;;;;;;4983204;28;20189;-46
2023/03/11 04:20:03;;;;;;;29.33;15.60;;;-0.30;99.90;;;;;;4983850;28;20519;-46
2023/03/11 04:22:29;;;;;;;30.00;16.03;;;-0.30;99.90;;;;;;4985427;28;20460;-46
2023/03/11 04:24:55;;;;;;;28.60;14.80;;;-0.30;99.90;;;;;;4987411;28;20452;-46
2023/03/11 04:27:20;;;;;;;28.00;15.67;;;-0.30;99.90;;;;;;4984322;28;20188;-45
2023/03/11 04:29:46;;;;;;;26.90;14.13;;;-0.30;99.90;;;;;;4981535;28;20269;-46
2023/03/11 04:32:11;;;;;;;29.67;14.93;;;-0.30;99.90;;;;;;4986810;28;20642;-46
2023/03/11 04:34:37;;;;;;;25.40;15.10;;;-0.30;99.90;;;;;;4982947;28;20320;-46
2023/03/11 04:37:02;;;;;;;27.67;15.30;;;-0.40;99.90;;;;;;4987000;28;20196;-46
2023/03/11 04:39:28;;;;;;;27.27;14.40;;;-0.50;99.90;;;;;;4979747;28;20189;-46
2023/03/11 04:41:54;;;;;;;25.67;14.03;;;-0.50;99.90;;;;;;4979379;28;20189;-46
2023/03/11 04:44:19;;;;;;;27.93;15.10;;;-0.60;99.90;;;;;;4980380;28;20189;-46
2023/03/11 04:46:45;;;;;;;26.27;13.83;;;-0.60;99.20;;;;;;4984459;28;20192;-46
2023/03/11 04:49:10;;;;;;;28.90;14.83;;;-0.70;98.20;;;;;;4981871;28;23328;-47
2023/03/11 04:51:36;;;;;;;28.17;14.67;;;-0.80;95.20;;;;;;4979688;28;20284;-46
2023/03/11 04:54:02;;;;;;;29.73;13.33;;;-0.90;93.10;;;;;;4980468;28;20185;-46
2023/03/11 04:56:27;;;;;;;28.00;14.43;;;-0.90;92.60;;;;;;4980030;28;20232;-47
2023/03/11 04:58:53;;;;;;;30.80;13.63;;;-0.90;97.40;;;;;;4980593;28;20189;-46
2023/03/11 05:01:18;;;;;;;26.43;14.13;;;-1.00;98.30;;;;;;4982808;28;20184;-46
2023/03/11 05:03:45;;;;;;;26.47;12.97;;;-1.10;98.90;;;;;;4980170;28;20194;-46
2023/03/11 05:06:10;;;;;;;23.37;12.70;;;-1.10;98.80;;;;;;4982300;28;20193;-46
2023/03/11 05:08:36;;;;;;;25.77;13.97;;;-1.20;99.90;;;;;;4978162;28;20539;-46
2023/03/11 05:11:01;;;;;;;18.93;11.67;;;-1.20;99.90;;;;;;4984027;28;20195;-46
2023/03/11 05:13:27;;;;;;;22.47;12.37;;;-1.30;99.90;;;;;;4986417;28;20271;-46
2023/03/11 05:15:53;;;;;;;23.90;13.13;;;-1.30;99.90;;;;;;4984945;28;20185;-46
2023/03/11 05:18:18;;;;;;;24.37;11.73;;;-1.40;99.90;;;;;;4980874;28;20593;-46
2023/03/11 05:20:44;;;;;;;22.87;12.23;;;-1.40;99.90;;;;;;4978749;28;20215;-45
2023/03/11 05:23:09;;;;;;;23.57;13.47;;;-1.40;99.90;;;;;;4982229;28;20188;-46
2023/03/11 05:25:35;;;;;;;23.63;12.13;;;-1.40;99.90;;;;;;4986612;28;20237;-46
2023/03/11 05:28:01;;;;;;;22.57;13.13;;;-1.40;99.90;;;;;;4980751;28;20691;-46
2023/03/11 05:30:27;;;;;;;26.73;13.23;;;-1.50;99.90;;;;;;4979841;28;20240;-46
2023/03/11 05:32:52;;;;;;;26.90;13.33;;;-1.40;99.90;;;;;;4979725;28;20440;-46
2023/03/11 05:35:18;;;;;;;24.73;13.47;;;-1.40;99.90;;;;;;4980491;28;20247;-46
2023/03/11 05:37:43;;;;;;;21.37;12.80;;;-1.50;99.90;;;;;;4980564;28;20649;-45
2023/03/11 05:40:11;;;;;;;28.63;14.27;;;-1.50;99.90;;;;;;4985510;28;20189;-46
2023/03/11 05:42:39;;;;;;;29.80;13.60;;;-1.50;99.90;;;;;;4983004;28;20182;-46
2023/03/11 05:45:05;;;;;;;23.00;13.07;;;-1.60;99.90;;;;;;4983893;28;20441;-46
2023/03/11 05:47:30;;;;;;;26.67;14.60;;;-1.50;99.90;;;;;;4985432;28;20516;-46
2023/03/11 05:49:56;;;;;;;27.23;14.23;;;-1.50;99.90;;;;;;4986658;28;20480;-46
2023/03/11 05:52:21;;;;;;;29.50;15.60;;;-1.60;99.90;;;;;;4981012;28;20611;-46
2023/03/11 05:54:51;;;;;;;26.67;13.77;;;-1.60;99.90;;;;;;4985410;28;20202;-46
2023/03/11 05:57:17;;;;;;;27.40;14.93;;;-1.60;99.90;;;;;;4985703;28;22039;-46
2023/03/11 05:59:43;;;;;;;30.70;14.33;;;-1.50;99.90;;;;;;4982170;28;20481;-46
2023/03/11 06:02:09;;;;;;;28.47;14.67;;;-1.50;99.90;;;;;;4981921;28;20567;-45
2023/03/11 06:04:34;;;;;;;29.93;13.90;;;-1.50;99.90;;;;;;4981459;28;20239;-46
2023/03/11 06:07:00;;;;;;;29.37;14.17;;;-1.60;99.90;;;;;;4979604;28;20645;-46
2023/03/11 06:09:26;;;;;;;27.67;13.50;;;-1.50;99.90;;;;;;4979877;28;20225;-46
2023/03/11 06:11:51;;;;;;;26.37;14.23;;;-1.60;99.90;;;;;;4981883;28;20603;-46
2023/03/11 06:14:17;;;;;;;30.77;13.83;;;-1.60;99.90;;;;;;4978645;28;20682;-46
2023/03/11 06:16:43;;;;;;;26.13;14.23;;;-1.50;99.90;;;;;;4983455;28;20224;-46
2023/03/11 06:19:08;;;;;;;31.53;14.80;;;-1.50;99.90;;;;;;4982291;28;20661;-46
2023/03/11 06:21:34;;;;;;;28.23;14.03;;;-1.50;99.90;;;;;;4984009;28;20209;-46
2023/03/11 06:23:59;;;;;;;29.50;13.70;;;-1.50;99.90;;;;;;4979042;28;20203;-46
2023/03/11 06:26:25;;;;;;;30.40;14.97;;;-1.50;99.90;;;;;;4980862;28;20730;-46
2023/03/11 06:28:51;;;;;;;28.73;14.27;;;-1.50;99.90;;;;;;4982901;28;20265;-46
2023/03/11 06:31:25;;;;;;;26.43;13.90;;;-1.40;99.90;;;;;;4978900;28;20653;-46
2023/03/11 06:33:52;;;;;;;29.43;13.80;;;-1.40;99.90;;;;;;4985462;28;20591;-46
2023/03/11 06:36:20;;;;;;;29.93;14.53;;;-1.40;99.90;;;;;;4981653;28;20562;-46
2023/03/11 06:38:48;;;;;;;32.43;14.37;;;-1.30;99.90;;;;;;4978955;28;20478;-46
2023/03/11 06:41:13;;;;;;;28.47;14.53;;;-1.30;99.90;;;;;;4980951;28;20444;-46
2023/03/11 06:43:39;;;;;;;28.13;13.97;;;-1.20;99.90;;;;;;4981849;28;20448;-46
2023/03/11 06:46:11;;;;;;;28.63;14.23;;;-1.10;99.90;;;;;;4979279;28;20309;-47
2023/03/11 06:48:37;;;;;;;26.30;13.00;;;-1.00;99.90;;;;;;4979723;28;20228;-46
2023/03/11 06:51:02;;;;;;;26.83;14.20;;;-1.00;98.00;;;;;;4981065;28;20443;-46
2023/03/11 06:53:28;;;;;;;25.53;13.53;;;-0.80;95.70;;;;;;4982205;28;20186;-46
2023/03/11 06:56:06;;;;;;;26.07;13.93;;;-0.70;91.50;;;;;;4982136;28;20690;-47
2023/03/11 06:58:33;;;;;;;29.73;13.57;;;-0.70;65.80;;;;;;4980403;28;20975;-47
2023/03/11 07:01:01;;;;;;;24.33;13.63;;;-0.70;30.00;;;;;;4978594;28;20470;-47
2023/03/11 07:03:27;;;;;;;26.43;13.70;;;-0.70;7.80;;;;;;4978080;28;20447;-47
2023/03/11 07:05:52;;;;;;;20.93;12.40;;;-0.60;1.00;;;;;;4982288;28;20451;-47
2023/03/11 07:08:18;;;;;;;32.07;13.30;;;-0.60;1.00;;;;;;4978677;28;20882;-47
2023/03/11 07:10:44;;;;;;;22.10;12.83;;;-0.50;1.00;;;;;;4979482;28;20200;-47
2023/03/11 07:13:09;;;;;;;20.63;11.37;;;-0.50;1.00;;;;;;4978758;28;20189;-47
2023/03/11 07:15:35;;;;;;;21.60;12.27;;;-0.40;1.00;;;;;;4981291;28;20448;-47
2023/03/11 07:18:01;;;;;;;23.90;12.07;;;-0.30;1.00;;;;;;4981015;28;20558;-48
2023/03/11 07:20:26;;;;;;;19.67;11.80;;;-0.20;1.00;;;;;;4977555;28;20193;-48
2023/03/11 07:22:52;;;;;;;20.80;11.33;;;0.00;1.00;;;;;;4977324;28;20236;-48
2023/03/11 07:25:18;;;;;;;23.90;13.17;;;0.30;1.00;;;;;;4977878;28;20194;-47
2023/03/11 07:27:43;;;;;;;21.57;12.80;;;0.70;1.00;;;;;;4976821;28;20459;-48
2023/03/11 07:30:10;;;;;;;22.77;12.60;;;1.20;1.00;;;;;;4985161;28;20322;-49
2023/03/11 07:32:35;;;;;;;16.60;11.30;;;2.00;1.00;;;;;;4979201;28;20236;-50
2023/03/11 07:35:01;;;;;;;17.70;10.57;;;2.70;1.00;;;;;;4985630;28;20476;-49
2023/03/11 07:37:26;;;;;;;17.80;9.87;;;3.20;99.90;;;;;;4978300;28;20213;-49
2023/03/11 07:39:52;;;;;;;14.73;9.60;;;3.30;99.90;;;;;;4984200;28;20268;-49
2023/03/11 07:42:17;;;;;;;14.60;9.07;;;3.40;1.00;;;;;;4984870;28;20185;-49
2023/03/11 07:44:43;;;;;;;21.57;9.77;;;3.70;1.00;;;;;;4980722;28;20181;-49
2023/03/11 07:47:09;;;;;;;11.07;8.07;;;4.20;1.00;;;;;;4988152;28;20185;-49
2023/03/11 07:49:35;;;;;;;20.90;10.33;;;4.80;1.00;;;;;;4979046;28;20212;-50
2023/03/11 07:52:00;;;;;;;10.20;7.30;;;5.30;99.90;;;;;;4985646;28;20492;-49
2023/03/11 07:54:26;;;;;;;12.53;7.87;;;6.00;99.90;;;;;;4981243;28;20282;-50
2023/03/11 07:56:51;;;;;;;11.80;7.90;;;6.70;1.00;;;;;;4976971;28;20193;-50
2023/03/11 07:59:17;;;;;;;11.07;6.83;;;7.20;1.00;;;;;;4977269;28;20225;-49
2023/03/11 08:01:46;;;;;;;10.60;6.37;;;7.40;1.00;;;;;;4982361;28;20197;-49
2023/03/11 08:04:13;;;;;;;8.00;6.43;;;7.70;1.00;;;;;;4985613;28;20198;-49
2023/03/11 08:06:41;;;;;;;10.43;7.07;;;7.70;1.00;;;;;;4981343;28;20440;-49
2023/03/11 08:09:08;;;;;;;11.40;7.53;;;7.90;1.00;;;;;;4989257;28;20484;-49
2023/03/11 08:11:34;;;;;;;11.53;6.33;;;8.10;1.00;;;;;;4976787;28;20447;-49
2023/03/11 08:14:00;;;;;;;9.33;5.80;;;8.30;1.00;;;;;;4977196;28;20453;-49
2023/03/11 08:16:26;;;;;;;9.83;6.33;;;8.40;1.00;;;;;;4980338;28;20447;-49
2023/03/11 08:18:52;;;;;;;11.53;6.30;;;8.50;1.00;;;;;;4978595;28;20445;-49
2023/03/11 08:21:21;;;;;;;8.93;6.30;;;9.00;1.00;;;;;;4980453;28;20430;-48
2023/03/11 08:23:47;;;;;;;10.97;5.90;;;9.10;1.00;;;;;;4985266;28;20924;-49
2023/03/11 08:26:16;;;;;;;8.07;5.93;;;9.60;1.00;;;;;;4983490;28;20791;-49
2023/03/11 08:28:42;;;;;;;8.40;5.80;;;9.60;1.00;;;;;;4980030;28;20477;-49
2023/03/11 08:31:19;;;;;;;11.63;6.23;;;9.50;1.00;;;;;;4979931;28;20529;-49
2023/03/11 08:33:48;;;;;;;8.93;5.70;;;9.70;1.00;;;;;;4977093;28;20520;-49
2023/03/11 08:36:14;;;;;;;8.20;5.47;;;9.70;1.00;;;;;;4978947;28;20995;-49
2023/03/11 08:38:40;;;;;;;6.60;5.53;;;9.90;1.00;;;;;;4975556;28;20440;-49
2023/03/11 08:41:06;;;;;;;8.67;5.40;;;9.90;1.00;;;;;;4979005;28;20646;-49
2023/03/11 08:43:32;;;;;;;8.40;5.00;;;10.20;1.00;;;;;;4979369;28;20843;-49
2023/03/11 08:46:05;;;;;;;6.93;5.10;;;10.30;1.00;;;;;;4976807;28;20450;-49
2023/03/11 08:48:31;;;;;;;7.90;4.70;;;10.70;1.00;;;;;;4996689;28;20214;-49
2023/03/11 08:50:57;;;;;;;9.83;4.90;;;10.40;1.00;;;;;;4978624;28;20448;-49
2023/03/11 08:53:24;;;;;;;9.33;4.80;;;10.40;1.00;;;;;;4983121;28;20941;-50
2023/03/11 08:55:51;;;;;;;5.67;4.20;;;10.60;1.00;;;;;;4994543;28;20452;-50
2023/03/11 08:58:17;;;;;;;7.40;5.00;;;11.10;1.00;;;;;;4995838;28;20455;-49
2023/03/11 09:00:42;;;;;;;5.40;4.03;;;11.10;1.00;;;;;;4980152;28;20431;-49
2023/03/11 09:03:08;;;;;;;6.50;4.33;;;11.20;1.00;;;;;;4993085;28;20446;-49
2023/03/11 09:05:35;;;;;;;8.43;4.50;;;11.30;1.00;;;;;;4995712;28;20712;-49
2023/03/11 09:08:02;;;;;;;7.27;4.63;;;11.20;1.00;;;;;;4995263;28;20476;-49
2023/03/11 09:10:28;;;;;;;9.13;4.23;;;11.10;1.00;;;;;;4996005;28;20441;-50
2023/03/11 09:12:53;;;;;;;5.30;3.87;;;10.80;1.00;;;;;;4994016;28;20437;-47
2023/03/11 09:15:19;;;;;;;6.33;4.07;;;10.70;1.00;;;;;;4996633;28;20647;-48
2023/03/11 09:17:44;;;;;;;8.67;4.30;;;10.20;1.00;;;;;;4992830;28;20192;-49
2023/03/11 09:20:12;;;;;;;4.67;3.90;;;9.70;1.00;;;;;;4987801;28;20194;-49
2023/03/11 09:22:38;;;;;;;7.83;3.80;;;9.30;1.00;;;;;;4992286;28;20186;-49
2023/03/11 09:25:04;;;;;;;6.03;3.80;;;9.00;1.00;;;;;;4993124;28;20443;-49
2023/03/11 09:27:30;;;;;;;7.23;4.03;;;9.10;1.00;;;;;;4994732;28;20231;-49
2023/03/11 09:29:55;;;;;;;4.30;3.47;;;8.90;1.00;;;;;;4995908;28;20480;-49
2023/03/11 09:32:21;;;;;;;5.63;3.53;;;8.40;1.00;;;;;;4994939;28;20193;-49
2023/03/11 09:34:46;;;;;;;6.53;3.40;;;8.10;1.00;;;;;;4989174;28;20247;-49
2023/03/11 09:37:12;;;;;;;5.40;3.90;;;7.90;1.00;;;;;;4996651;28;20171;-49
2023/03/11 09:39:37;;;;;;;5.80;3.50;;;7.30;1.00;;;;;;4994765;28;20193;-49
2023/03/11 09:42:36;;;;;;;4.93;3.30;;;7.00;1.00;;;;;;4996319;28;20243;-49
2023/03/11 09:45:08;;;;;;;5.33;3.40;;;6.80;1.00;;;;;;4973067;28;20190;-49
2023/03/11 09:47:43;;;;;;;8.67;3.47;;;6.80;1.00;;;;;;4976499;28;20425;-51
2023/03/11 09:50:21;;;;;;;6.13;3.53;;;6.70;1.00;;;;;;4995480;28;20556;-49
2023/03/11 09:52:59;;;;;;;5.13;3.70;;;6.60;1.00;;;;;;4997922;28;20940;-49
2023/03/11 09:55:30;;;;;;;5.10;3.20;;;6.50;1.00;;;;;;4983031;28;20440;-50
2023/03/11 09:57:58;;;;;;;5.10;3.23;;;6.50;1.00;;;;;;4983021;28;20813;-50
2023/03/11 10:00:25;;;;;;;7.60;3.70;;;6.50;1.00;;;;;;4979206;28;20945;-50
2023/03/11 10:02:50;;;;;;;13.80;4.33;;;6.20;1.00;;;;;;4978525;28;20802;-49
2023/03/11 10:05:22;;;;;;;11.03;3.77;;;6.00;1.00;;;;;;4976523;28;20440;-50
2023/03/11 10:08:03;;;;;;;5.93;3.80;;;6.00;1.00;;;;;;4981570;28;20198;-51
2023/03/11 10:10:37;;;;;;;6.47;4.00;;;5.80;1.00;;;;;;4981977;28;20504;-51
2023/03/11 10:13:04;;;;;;;6.20;3.40;;;5.70;1.00;;;;;;4984832;28;20445;-50
2023/03/11 10:16:09;;;;;;;7.13;3.60;;;5.90;1.00;;;;;;4979661;28;20982;-50
2023/03/11 10:18:47;;;;;;;8.70;3.47;;;5.90;1.00;;;;;;4982712;28;20455;-51
2023/03/11 10:21:34;;;;;;;6.30;3.27;;;6.10;1.00;;;;;;4981582;28;20531;-51
2023/03/11 10:24:37;;;;;;;4.50;2.90;;;6.10;1.00;;;;;;4982646;28;20457;-51
2023/03/11 10:27:09;;;;;;;4.57;3.20;;;6.50;1.00;;;;;;4977612;28;20452;-51
2023/03/11 10:29:49;;;;;;;10.23;5.63;;;6.80;1.00;;;;;;4985400;28;20471;-53
2023/03/11 10:32:31;;;;;;;6.00;3.30;;;6.80;1.00;;;;;;4986248;28;20441;-51
2023/03/11 10:35:25;;;;;;;6.00;3.77;;;7.10;1.00;;;;;;4981132;28;21059;-49
2023/03/11 10:38:02;;;;;;;4.20;2.70;;;7.30;1.00;;;;;;4981903;28;20441;-49
2023/03/11 10:40:34;;;;;;;7.10;3.20;;;7.20;1.00;;;;;;4985891;28;20940;-49
2023/03/11 10:43:04;;;;;;;5.07;3.27;;;7.30;1.00;;;;;;4978089;28;21038;-49
2023/03/11 10:45:39;;;;;;;10.37;3.10;;;8.10;1.00;;;;;;4978190;28;20445;-50
2023/03/11 10:48:13;;;;;;;10.90;3.40;;;8.80;1.00;;;;;;4980332;28;20524;-49
2023/03/11 10:50:53;;;;;;;7.47;3.67;;;9.30;1.00;;;;;;4983534;28;20453;-49
2023/03/11 10:53:20;;;;;;;7.03;3.67;;;9.80;1.00;;;;;;4978731;28;20448;-50
2023/03/11 10:55:51;;;;;;;8.23;3.13;;;9.90;1.00;;;;;;4983043;28;20450;-49
2023/03/11 10:58:23;;;;;;;4.97;3.13;;;10.40;1.00;;;;;;4977608;28;20492;-49
2023/03/11 11:01:15;;;;;;;7.93;3.53;;;10.90;1.00;;;;;;4977284;28;20547;-50
2023/03/11 11:03:44;;;;;;;6.50;3.40;;;12.30;1.00;;;;;;4978668;28;20809;-51
2023/03/11 11:06:25;;;;;;;6.67;3.37;;;13.30;1.00;;;;;;4977564;28;20506;-50
2023/03/11 11:09:18;;;;;;;5.80;2.83;;;13.80;1.00;;;;;;4981237;28;20917;-50
2023/03/11 11:12:00;;;;;;;11.50;3.80;;;14.60;1.00;;;;;;4978075;28;20449;-50
2023/03/11 11:14:40;;;;;;;7.30;3.13;;;15.20;1.00;;;;;;4978946;28;20434;-50
2023/03/11 11:17:18;;;;;;;6.50;2.70;;;15.40;1.00;;;;;;4982531;28;20478;-50
2023/03/11 11:19:48;;;;;;;9.47;3.20;;;15.30;1.00;;;;;;4982498;28;20434;-51
2023/03/11 11:22:19;;;;;;;5.33;3.27;;;15.90;1.00;;;;;;4980590;28;20442;-51
2023/03/11 11:24:47;;;;;;;7.07;3.03;;;15.90;1.00;;;;;;4980982;28;20454;-51
2023/03/11 11:27:28;;;;;;;6.07;3.10;;;15.90;1.00;;;;;;4979972;28;20452;-52
2023/03/11 11:30:14;;;;;;;2.67;2.20;;;15.70;1.00;;;;;;4977455;28;20494;-52
2023/03/11 11:32:41;;;;;;;9.83;3.23;;;15.80;1.00;;;;;;4977927;28;20520;-52
2023/03/11 11:35:13;;;;;;;5.63;2.40;;;16.30;1.00;;;;;;4976308;28;21121;-54
2023/03/11 11:37:46;;;;;;;6.27;2.97;;;16.50;1.00;;;;;;4981006;28;20460;-51
2023/03/11 11:40:15;;;;;;;13.40;2.70;;;16.60;1.00;;;;;;4980835;28;20439;-51
2023/03/11 11:42:52;;;;;;;2.50;2.00;;;16.80;1.00;;;;;;4977012;28;20787;-52
2023/03/11 11:45:36;;;;;;;9.07;2.60;;;16.60;1.00;;;;;;4980152;28;20460;-52
2023/03/11 11:48:09;;;;;;;6.93;2.80;;;16.20;1.00;;;;;;4977313;28;20772;-53
2023/03/11 11:50:42;;;;;;;3.37;2.00;;;15.80;1.00;;;;;;4979066;28;20453;-52
2023/03/11 11:53:23;;;;;;;5.00;1.67;;;15.20;1.00;;;;;;4980540;28;20442;-53
2023/03/11 11:55:52;;;;;;;9.30;1.90;;;15.50;1.00;;;;;;4983003;28;20453;-52
2023/03/11 11:58:19;;;;;;;5.83;2.50;;;14.60;1.00;;;;;;4982330;28;20502;-52
2023/03/11 12:01:02;;;;;;;5.37;1.80;;;14.60;1.00;;;;;;4980347;28;20434;-52
2023/03/11 12:03:30;;;;;;;4.57;1.80;;;14.30;1.00;;;;;;4979857;28;20433;-52
2023/03/11 12:06:01;;;;;;;7.50;1.33;;;13.00;1.00;;;;;;4981621;28;20437;-52
2023/03/11 12:08:53;;;;;;;4.47;1.57;;;12.30;1.00;;;;;;4977162;28;20590;-51
2023/03/11 12:11:25;;;;;;;3.07;1.30;;;11.70;1.00;;;;;;4980793;28;20477;-53
2023/03/11 12:14:13;;;;;;;6.30;1.40;;;11.90;1.00;;;;;;4984286;28;20451;-52
2023/03/11 12:17:02;;;;;;;3.47;1.27;;;11.20;1.00;;;;;;4980433;28;20443;-51
2023/03/11 12:19:49;;;;;;;4.03;1.10;;;11.40;1.00;;;;;;4984078;28;20445;-51
2023/03/11 12:22:48;;;;;;;2.40;1.03;;;12.00;1.00;;;;;;4981036;28;20443;-51
2023/03/11 12:25:22;;;;;;;4.10;1.33;;;12.70;1.00;;;;;;4980231;28;20977;-51
2023/03/11 12:27:51;;;;;;;5.40;1.63;;;12.30;1.00;;;;;;4980238;28;20433;-51
2023/03/11 12:30:26;;;;;;;3.50;1.33;;;12.20;1.00;;;;;;4980363;28;20880;-52
2023/03/11 12:32:57;;;;;;;3.20;1.20;;;13.10;1.00;;;;;;4984324;28;20447;-52
2023/03/11 12:35:26;;;;;;;2.30;0.87;;;14.10;1.00;;;;;;4979439;28;20485;-53
2023/03/11 12:38:16;;;;;;;3.77;1.20;;;14.30;1.00;;;;;;4980732;28;20453;-53
2023/03/11 12:40:41;;;;;;;3.20;1.10;;;14.80;1.00;;;;;;4980427;28;20863;-53
2023/03/11 12:43:34;;;;;;;4.10;1.10;;;15.10;1.00;;;;;;4983333;28;20540;-53
2023/03/11 12:46:05;;;;;;;2.60;0.90;;;15.70;1.00;;;;;;4984386;28;20726;-53
2023/03/11 12:49:06;;;;;;;2.20;1.10;;;16.00;1.00;;;;;;4986848;28;20531;-53
2023/03/11 12:51:36;;;;;;;3.00;1.47;;;15.40;1.00;;;;;;4983921;28;20505;-53
2023/03/11 12:54:29;;;;;;;5.63;1.20;;;14.60;1.00;;;;;;4981389;28;20521;-52